Time;durP1;ratioP1;P1;durP2;ratioP2;P2;SDS_P1;SDS_P2;PMS_P1;PMS_P2;Temp;Humidity;BMP_temperature;BMP_pressure;BME280_temperature;BME280_humidity;BME280_pressure;Samples;Min_cycle;Max_cycle;Signal;HPM_P1;HPM_P2
2023/09/26 00:01:09;;;;;;;2.38;1.13;;;;;;;20.63;77.67;100651.91;5071459;28;20210;-77
2023/09/26 00:03:36;;;;;;;2.78;1.67;;;;;;;20.47;79.13;100662.72;5036279;28;20203;-76
2023/09/26 00:06:03;;;;;;;1.33;1.00;;;;;;;20.40;80.21;100653.19;5071531;28;20207;-75
2023/09/26 00:08:30;;;;;;;1.55;1.08;;;;;;;20.27;79.55;100640.19;5070819;28;20199;-75
2023/09/26 00:10:58;;;;;;;2.22;1.05;;;;;;;20.32;78.98;100644.50;5071263;28;20207;-76
2023/09/26 00:13:25;;;;;;;2.42;1.20;;;;;;;20.31;78.79;100655.94;5071420;28;20249;-75
2023/09/26 00:15:52;;;;;;;2.88;1.38;;;;;;;20.32;77.45;100658.56;5052601;28;20226;-75
2023/09/26 00:18:19;;;;;;;3.50;1.30;;;;;;;20.16;76.71;100649.09;5071098;28;20199;-75
2023/09/26 00:20:45;;;;;;;3.47;1.38;;;;;;;20.17;77.95;100662.25;5052758;28;20202;-75
2023/09/26 00:23:12;;;;;;;2.58;1.27;;;;;;;20.16;73.42;100660.50;5036156;28;20213;-75
2023/09/26 00:25:39;;;;;;;1.95;1.27;;;;;;;20.09;73.62;100645.69;5071108;28;20874;-75
2023/09/26 00:28:07;;;;;;;3.10;1.50;;;;;;;20.13;72.77;100628.97;5070964;28;20198;-76
2023/09/26 00:30:34;;;;;;;3.13;1.50;;;;;;;20.28;70.62;100662.13;5070817;28;20285;-75
2023/09/26 00:33:01;;;;;;;1.75;1.20;;;;;;;20.27;70.32;100656.00;5071324;28;20198;-76
2023/09/26 00:35:27;;;;;;;2.97;1.65;;;;;;;20.14;70.76;100627.22;5071006;28;20222;-75
2023/09/26 00:37:54;;;;;;;1.27;0.85;;;;;;;20.32;70.94;100653.28;5071194;28;20551;-76
2023/09/26 00:40:22;;;;;;;4.40;2.35;;;;;;;20.37;69.89;100650.59;5071562;28;20190;-75
2023/09/26 00:42:49;;;;;;;4.28;1.60;;;;;;;20.31;71.22;100655.94;5071066;28;20237;-75
2023/09/26 00:45:17;;;;;;;2.42;1.33;;;;;;;20.30;71.31;100648.94;5071490;28;20217;-75
2023/09/26 00:47:45;;;;;;;4.22;2.80;;;;;;;20.28;70.70;100651.59;5071308;28;20198;-75
2023/09/26 00:50:13;;;;;;;2.53;1.23;;;;;;;19.96;69.52;100602.03;5071216;28;20203;-76
2023/09/26 00:52:42;;;;;;;2.80;1.23;;;;;;;20.19;71.88;100641.19;5071087;28;20663;-76
2023/09/26 00:55:10;;;;;;;2.97;1.30;;;;;;;20.22;72.38;100635.88;5070307;28;20283;-75
2023/09/26 00:57:39;;;;;;;2.45;1.60;;;;;;;20.28;73.28;100636.66;5069208;28;20209;-76
2023/09/26 01:00:08;;;;;;;2.38;1.27;;;;;;;19.90;72.07;100565.28;5050833;28;20210;-76
2023/09/26 01:02:36;;;;;;;21.50;1.42;;;;;;;20.26;72.87;100630.50;5070275;28;20206;-75
2023/09/26 01:05:04;;;;;;;2.97;1.17;;;;;;;20.17;73.68;100628.03;5071039;28;20195;-76
2023/09/26 01:07:31;;;;;;;3.35;1.58;;;;;;;19.99;72.65;100601.09;5070740;28;20282;-76
2023/09/26 01:09:58;;;;;;;2.17;1.23;;;;;;;20.18;72.52;100628.91;5035770;28;20198;-75
2023/09/26 01:12:26;;;;;;;2.20;1.23;;;;;;;20.22;73.77;100626.22;5070714;28;20227;-76
2023/09/26 01:14:53;;;;;;;1.65;1.40;;;;;;;20.23;73.00;100625.28;5070755;28;20244;-75
2023/09/26 01:17:19;;;;;;;2.30;1.15;;;;;;;20.16;71.46;100605.22;5070464;28;20210;-75
2023/09/26 01:19:48;;;;;;;2.90;1.48;;;;;;;20.05;70.86;100585.19;5071117;28;20230;-75
2023/09/26 01:22:17;;;;;;;3.38;1.20;;;;;;;20.23;71.68;100619.16;5074431;28;20210;-75
2023/09/26 01:24:45;;;;;;;3.83;1.55;;;;;;;20.20;72.12;100620.06;5073698;28;20214;-76
2023/09/26 01:27:12;;;;;;;2.33;1.10;;;;;;;20.11;73.76;100622.88;5068414;28;20203;-76
2023/09/26 01:29:39;;;;;;;2.42;1.05;;;;;;;20.15;73.46;100624.56;5074815;28;20210;-75
2023/09/26 01:32:06;;;;;;;2.40;1.33;;;;;;;20.12;72.90;100619.31;5074205;28;20210;-75
2023/09/26 01:34:33;;;;;;;2.10;1.20;;;;;;;20.10;73.69;100612.34;5074128;28;20214;-75
2023/09/26 01:37:00;;;;;;;1.75;1.02;;;;;;;19.91;74.51;100580.16;5073810;28;20229;-75
2023/09/26 01:39:26;;;;;;;2.88;1.48;;;;;;;20.09;74.30;100613.22;5074082;28;20199;-75
2023/09/26 01:41:54;;;;;;;1.70;1.42;;;;;;;20.16;74.00;100618.38;5038823;28;20203;-75
2023/09/26 01:44:21;;;;;;;1.65;0.95;;;;;;;20.00;74.65;100603.72;5073891;28;20214;-76
2023/09/26 01:46:48;;;;;;;2.22;1.60;;;;;;;20.07;74.67;100629.06;5073811;28;20206;-76
2023/09/26 01:49:15;;;;;;;2.25;1.10;;;;;;;20.10;74.95;100623.75;5073978;28;20195;-75
2023/09/26 01:51:41;;;;;;;2.70;1.45;;;;;;;19.99;73.93;100601.97;5074278;28;20198;-75
2023/09/26 01:54:08;;;;;;;2.88;1.90;;;;;;;19.97;75.52;100605.53;5073675;28;20211;-76
2023/09/26 01:56:35;;;;;;;1.25;0.90;;;;;;;19.94;74.98;100609.06;5073864;28;20226;-75
2023/09/26 01:59:03;;;;;;;4.68;1.52;;;;;;;20.11;76.79;100633.41;5073877;28;20198;-74
2023/09/26 02:01:30;;;;;;;3.22;1.40;;;;;;;19.93;77.32;100614.34;5073555;28;20202;-75
2023/09/26 02:03:56;;;;;;;1.70;1.05;;;;;;;19.97;77.45;100624.84;5054992;28;20198;-76
2023/09/26 02:06:23;;;;;;;2.05;1.33;;;;;;;20.01;77.65;100630.94;5073263;28;20206;-75
2023/09/26 02:08:50;;;;;;;2.70;1.10;;;;;;;20.05;77.62;100636.09;5073517;28;20561;-75
2023/09/26 02:11:17;;;;;;;2.38;1.20;;;;;;;20.00;77.99;100640.59;5073467;28;20203;-75
2023/09/26 02:13:43;;;;;;;1.88;1.33;;;;;;;19.76;77.53;100610.19;5073280;28;20203;-75
2023/09/26 02:16:12;;;;;;;2.30;1.02;;;;;;;19.88;76.71;100614.41;5073047;28;20725;-75
2023/09/26 02:18:39;;;;;;;2.25;1.25;;;;;;;19.91;77.25;100651.22;5073370;28;20241;-76
2023/09/26 02:21:06;;;;;;;3.83;1.65;;;;;;;19.92;77.53;100639.81;5073472;28;20203;-76
2023/09/26 02:23:33;;;;;;;2.65;1.10;;;;;;;19.87;75.94;100628.47;5073255;28;20209;-76
2023/09/26 02:25:59;;;;;;;2.70;1.10;;;;;;;19.93;74.01;100646.81;5073511;28;20227;-76
2023/09/26 02:28:26;;;;;;;1.75;1.00;;;;;;;19.81;73.87;100636.44;5037954;28;20191;-76
2023/09/26 02:30:53;;;;;;;1.52;1.20;;;;;;;19.90;74.28;100652.13;5072894;28;20190;-76
2023/09/26 02:33:21;;;;;;;2.03;1.10;;;;;;;19.79;71.24;100628.59;5072693;28;20658;-76
2023/09/26 02:35:48;;;;;;;2.83;1.20;;;;;;;19.87;68.50;100651.31;5072929;28;20227;-76
2023/09/26 02:38:15;;;;;;;29.42;1.67;;;;;;;19.88;70.20;100645.13;5071668;28;20195;-76
2023/09/26 02:40:41;;;;;;;2.42;1.10;;;;;;;19.85;66.14;100642.53;5072529;28;20210;-76
2023/09/26 02:43:08;;;;;;;5.63;1.80;;;;;;;19.16;65.73;100543.47;5072644;28;20194;-76
2023/09/26 02:45:35;;;;;;;3.75;1.38;;;;;;;19.66;65.61;100647.19;5034231;28;20298;-76
2023/09/26 02:48:04;;;;;;;3.28;1.27;;;;;;;19.73;67.47;100638.31;5066273;28;20213;-75
2023/09/26 02:50:32;;;;;;;3.50;1.50;;;;;;;19.71;66.90;100634.84;5070938;28;20264;-76
2023/09/26 02:52:59;;;;;;;3.83;1.63;;;;;;;19.61;68.34;100652.53;5070995;28;20658;-77
2023/09/26 02:55:26;;;;;;;5.28;1.25;;;;;;;19.61;70.24;100649.00;5052535;28;20596;-76
2023/09/26 02:57:52;;;;;;;1.95;1.15;;;;;;;19.53;70.72;100651.75;5017532;28;20683;-76
2023/09/26 03:00:20;;;;;;;2.08;1.10;;;;;;;19.50;71.29;100648.28;5070106;28;20626;-77
2023/09/26 03:02:48;;;;;;;1.70;0.90;;;;;;;19.30;71.74;100615.16;5072722;28;20198;-75
2023/09/26 03:05:15;;;;;;;4.93;2.13;;;;;;;19.59;88.46;100653.41;5072127;28;20191;-69
2023/09/26 03:07:44;;;;;;;1.38;0.90;;;;;;;19.69;73.82;100660.31;5072604;28;20206;-76
2023/09/26 03:10:11;;;;;;;1.95;1.27;;;;;;;19.54;70.07;100653.50;5072465;28;20203;-75
2023/09/26 03:12:38;;;;;;;2.72;1.50;;;;;;;19.47;71.36;100666.72;5072365;28;20256;-76
2023/09/26 03:15:07;;;;;;;3.45;1.27;;;;;;;19.41;69.24;100664.13;5072167;28;20617;-75
2023/09/26 03:17:34;;;;;;;2.83;1.05;;;;;;;19.33;70.32;100672.97;5072238;28;20258;-75
2023/09/26 03:20:00;;;;;;;2.30;1.45;;;;;;;19.14;80.88;100629.38;5071602;28;20238;-73
2023/09/26 03:22:27;;;;;;;3.15;1.30;;;;;;;19.15;73.24;100627.63;5072137;28;20199;-73
2023/09/26 03:24:55;;;;;;;2.22;1.02;;;;;;;19.36;70.72;100671.22;5072118;28;20637;-76
2023/09/26 03:27:22;;;;;;;4.53;1.27;;;;;;;19.08;70.88;100647.84;5064997;28;20295;-75
2023/09/26 03:29:50;;;;;;;2.67;1.10;;;;;;;19.20;69.75;100674.00;5071331;28;20198;-75
2023/09/26 03:32:17;;;;;;;4.00;1.42;;;;;;;18.92;70.26;100643.63;5068977;28;20199;-74
2023/09/26 03:34:44;;;;;;;1.85;1.25;;;;;;;19.09;71.30;100667.09;5071084;28;20206;-74
2023/09/26 03:37:11;;;;;;;2.58;1.02;;;;;;;19.03;71.01;100672.44;5065748;28;20232;-76
2023/09/26 03:39:37;;;;;;;1.52;1.35;;;;;;;19.04;70.07;100675.06;5071420;28;20191;-77
2023/09/26 03:42:06;;;;;;;3.88;1.27;;;;;;;18.97;70.83;100647.09;5070897;28;20199;-75
2023/09/26 03:44:32;;;;;;;2.78;1.20;;;;;;;19.02;72.02;100682.06;5070930;28;20206;-75
2023/09/26 03:46:59;;;;;;;2.13;0.93;;;;;;;19.04;74.31;100676.81;5071045;28;20206;-75
2023/09/26 03:49:26;;;;;;;1.85;1.20;;;;;;;18.99;75.43;100671.59;5071360;28;20210;-75
2023/09/26 03:51:53;;;;;;;2.90;1.50;;;;;;;19.00;73.27;100677.72;5071552;28;20194;-76
2023/09/26 03:54:20;;;;;;;2.20;0.88;;;;;;;18.90;74.45;100655.94;5071356;28;20221;-74
2023/09/26 03:56:47;;;;;;;2.25;0.98;;;;;;;19.10;74.57;100689.88;5071603;28;20654;-76
2023/09/26 03:59:16;;;;;;;3.25;1.38;;;;;;;19.20;74.76;100681.00;5071529;28;20604;-74
2023/09/26 04:01:43;;;;;;;2.40;1.15;;;;;;;19.12;74.34;100683.72;5036867;28;20202;-74
2023/09/26 04:04:09;;;;;;;4.00;1.27;;;;;;;19.13;73.92;100681.97;5071457;28;20245;-74
2023/09/26 04:06:38;;;;;;;2.45;1.15;;;;;;;19.14;73.48;100681.97;5071731;28;20197;-73
2023/09/26 04:09:05;;;;;;;2.40;1.10;;;;;;;19.09;74.44;100677.63;5071145;28;20202;-76
2023/09/26 04:11:32;;;;;;;2.10;0.98;;;;;;;19.19;73.75;100692.44;5071525;28;20203;-73
2023/09/26 04:13:59;;;;;;;2.50;1.20;;;;;;;19.20;73.14;100686.25;5052780;28;20666;-75
2023/09/26 04:16:27;;;;;;;2.00;0.90;;;;;;;19.22;75.83;100687.13;5036538;28;20698;-76
2023/09/26 04:18:54;;;;;;;4.85;1.38;;;;;;;19.20;74.40;100681.00;5071280;28;20229;-74
2023/09/26 04:21:20;;;;;;;3.40;1.55;;;;;;;19.11;73.15;100665.34;5071299;28;20264;-76
2023/09/26 04:23:47;;;;;;;3.38;1.20;;;;;;;19.16;74.53;100687.19;5071429;28;20658;-74
2023/09/26 04:26:15;;;;;;;2.13;1.17;;;;;;;19.20;75.28;100684.50;5071244;28;20214;-74
2023/09/26 04:28:43;;;;;;;2.42;1.23;;;;;;;19.04;74.54;100669.81;5071179;28;20207;-75
2023/09/26 04:31:16;;;;;;;4.97;1.15;;;;;;;19.29;71.63;100692.31;5071051;28;20216;-74
2023/09/26 04:33:44;;;;;;;1.90;1.35;;;;;;;19.17;72.12;100675.78;5071381;28;20202;-75
2023/09/26 04:36:11;;;;;;;1.75;1.10;;;;;;;19.21;75.35;100691.53;5071044;28;20230;-74
2023/09/26 04:38:38;;;;;;;3.05;1.38;;;;;;;19.07;71.47;100659.25;5036292;28;20678;-75
2023/09/26 04:41:05;;;;;;;2.53;1.05;;;;;;;19.27;70.83;100688.81;5071158;28;20601;-74
2023/09/26 04:43:32;;;;;;;3.05;1.10;;;;;;;19.30;71.86;100688.78;5071180;28;20203;-75
2023/09/26 04:46:00;;;;;;;6.80;1.63;;;;;;;19.44;70.45;100693.91;5071198;28;20694;-74
2023/09/26 04:48:27;;;;;;;2.33;1.08;;;;;;;19.45;70.87;100694.78;5071560;28;20567;-75
2023/09/26 04:50:55;;;;;;;4.28;1.80;;;;;;;19.52;69.07;100689.44;5070633;28;20198;-74
2023/09/26 04:53:22;;;;;;;2.63;0.95;;;;;;;19.46;67.91;100686.91;5071224;28;20199;-75
2023/09/26 04:55:49;;;;;;;1.83;1.33;;;;;;;19.40;67.49;100688.69;5040079;28;20260;-75
2023/09/26 04:58:16;;;;;;;2.15;1.00;;;;;;;19.37;68.17;100699.25;5074070;28;20641;-75
2023/09/26 05:00:43;;;;;;;2.85;1.23;;;;;;;19.44;68.02;100695.69;5074646;28;20195;-75
2023/09/26 05:03:10;;;;;;;3.63;1.60;;;;;;;19.45;68.73;100703.56;5074795;28;20675;-75
2023/09/26 05:05:37;;;;;;;2.83;1.55;;;;;;;19.49;68.22;100699.13;5074607;28;20194;-73
2023/09/26 05:08:05;;;;;;;13.75;2.65;;;;;;;19.72;69.48;100699.75;5074217;28;20210;-74
2023/09/26 05:10:32;;;;;;;2.13;1.35;;;;;;;19.76;69.62;100677.78;5074923;28;20222;-75
2023/09/26 05:12:59;;;;;;;2.45;1.02;;;;;;;19.90;67.06;100707.41;5037179;28;20261;-70
2023/09/26 05:15:26;;;;;;;3.50;1.77;;;;;;;20.12;66.43;100706.22;5074358;28;20209;-81
2023/09/26 05:17:53;;;;;;;5.57;1.27;;;;;;;19.93;65.93;100715.28;5069786;28;20234;-80
2023/09/26 05:20:20;;;;;;;5.47;1.48;;;;;;;19.84;67.49;100715.38;5072731;28;20231;-74
2023/09/26 05:22:48;;;;;;;3.30;1.33;;;;;;;20.22;66.04;100715.75;5044539;28;20206;-77
2023/09/26 05:25:17;;;;;;;8.88;1.52;;;;;;;20.51;65.43;100722.38;5073942;28;20202;-76
2023/09/26 05:27:43;;;;;;;7.18;1.95;;;;;;;20.51;63.19;100710.06;5074722;28;20263;-75
2023/09/26 05:30:12;;;;;;;4.43;1.40;;;;;;;20.23;63.17;100721.84;5060758;28;20216;-76
2023/09/26 05:32:40;;;;;;;3.40;1.30;;;;;;;20.15;63.54;100702.69;5073665;28;20238;-81
2023/09/26 05:35:08;;;;;;;3.45;1.15;;;;;;;20.38;64.55;100719.03;5077922;28;20218;-81
2023/09/26 05:37:35;;;;;;;3.83;1.27;;;;;;;20.52;63.60;100724.09;5073679;28;20234;-80
2023/09/26 05:40:06;;;;;;;2.20;0.90;;;;;;;20.56;62.78;100726.66;5073945;28;20203;-81
2023/09/26 05:42:34;;;;;;;3.47;1.75;;;;;;;20.61;62.73;100730.13;5059939;28;20202;-81
2023/09/26 05:45:01;;;;;;;6.63;1.70;;;;;;;20.59;63.48;100733.66;5074372;28;20211;-81
2023/09/26 05:47:28;;;;;;;3.30;1.15;;;;;;;20.65;62.46;100731.78;5066768;28;20199;-80
2023/09/26 05:49:55;;;;;;;9.32;2.30;;;;;;;20.60;62.24;100717.84;5058250;28;20203;-82
2023/09/26 05:52:22;;;;;;;4.07;1.42;;;;;;;20.71;62.80;100731.72;5068413;28;20658;-82
2023/09/26 05:54:49;;;;;;;5.05;1.48;;;;;;;20.83;62.54;100746.47;5065372;28;20209;-82
2023/09/26 05:57:16;;;;;;;2.60;1.10;;;;;;;20.76;61.70;100718.47;5073396;28;20233;-81
2023/09/26 05:59:44;;;;;;;6.38;1.92;;;;;;;20.67;62.14;100735.28;5063574;28;20665;-81
2023/09/26 06:02:13;;;;;;;2.00;1.00;;;;;;;20.57;61.94;100748.63;5070503;28;20218;-82
2023/09/26 06:04:41;;;;;;;3.70;1.52;;;;;;;20.74;62.98;100751.88;5074092;28;20199;-82
2023/09/26 06:07:08;;;;;;;2.60;1.25;;;;;;;20.81;62.51;100744.72;5054891;28;20235;-82
2023/09/26 06:09:35;;;;;;;3.17;1.30;;;;;;;21.02;62.06;100747.88;5073829;28;20198;-82
2023/09/26 06:12:02;;;;;;;2.67;1.70;;;;;;;20.99;61.63;100747.06;5073643;28;20233;-80
2023/09/26 06:14:29;;;;;;;1.85;1.00;;;;;;;20.93;61.55;100753.31;5074149;28;20206;-82
2023/09/26 06:16:57;;;;;;;1.88;1.00;;;;;;;20.76;62.09;100724.59;5074155;28;20226;-81
2023/09/26 06:19:24;;;;;;;2.28;1.05;;;;;;;20.68;62.78;100731.75;5073850;28;20239;-82
2023/09/26 06:21:51;;;;;;;3.03;1.20;;;;;;;20.76;63.41;100744.81;5073618;28;20195;-82
2023/09/26 06:24:17;;;;;;;4.18;1.40;;;;;;;21.02;63.08;100747.88;5073331;28;20206;-82
2023/09/26 06:26:44;;;;;;;2.10;1.13;;;;;;;20.89;62.67;100754.28;5073325;28;20202;-82
2023/09/26 06:29:12;;;;;;;2.75;1.30;;;;;;;20.76;63.61;100752.72;5073411;28;20202;-82
2023/09/26 06:31:42;;;;;;;2.42;1.10;;;;;;;20.94;62.90;100725.19;5073326;28;20195;-82
2023/09/26 06:34:10;;;;;;;2.78;1.75;;;;;;;21.22;63.65;100729.97;5073282;28;20194;-82
2023/09/26 06:36:37;;;;;;;3.35;1.27;;;;;;;20.78;64.69;100748.28;5072942;28;20321;-82
2023/09/26 06:39:04;;;;;;;2.17;1.00;;;;;;;20.50;67.24;100742.59;5073001;28;20689;-81
2023/09/26 06:41:31;;;;;;;5.38;1.60;;;;;;;20.63;66.92;100738.84;5073468;28;20590;-78
2023/09/26 06:43:58;;;;;;;2.88;1.13;;;;;;;20.55;67.93;100718.78;5072975;28;20207;-84
2023/09/26 06:46:24;;;;;;;4.35;1.30;;;;;;;20.71;68.69;100742.25;5072881;28;20203;-75
2023/09/26 06:48:52;;;;;;;12.77;2.80;;;;;;;20.82;69.11;100723.63;5071069;28;20213;-77
2023/09/26 06:51:20;;;;;;;2.25;1.00;;;;;;;21.16;68.01;100745.91;5058709;28;20787;-82
2023/09/26 06:53:49;;;;;;;2.28;1.10;;;;;;;21.26;69.23;100752.75;5072516;28;20254;-77
2023/09/26 06:56:16;;;;;;;3.78;1.27;;;;;;;21.30;67.43;100742.19;5072556;28;20202;-77
2023/09/26 06:58:42;;;;;;;3.75;1.15;;;;;;;21.27;66.99;100743.97;5072370;28;20222;-77
2023/09/26 07:01:14;;;;;;;2.70;1.35;;;;;;;21.21;68.42;100753.75;5072451;28;20202;-77
2023/09/26 07:03:40;;;;;;;3.50;1.17;;;;;;;21.30;68.67;100752.72;5072736;28;20260;-77
2023/09/26 07:06:10;;;;;;;4.43;1.52;;;;;;;21.44;69.11;100729.59;5072352;28;20206;-77
2023/09/26 07:08:38;;;;;;;2.45;0.95;;;;;;;21.10;69.90;100713.47;5072462;28;20302;-77
2023/09/26 07:11:05;;;;;;;2.72;1.20;;;;;;;21.35;70.49;100745.59;5072436;28;20726;-77
2023/09/26 07:13:34;;;;;;;4.57;1.40;;;;;;;21.46;70.28;100722.50;5072092;28;20724;-76
2023/09/26 07:16:03;;;;;;;3.53;1.20;;;;;;;21.57;69.12;100724.03;5072582;28;20202;-77
2023/09/26 07:18:31;;;;;;;2.88;1.25;;;;;;;21.86;68.92;100741.06;5071410;28;20238;-78
2023/09/26 07:20:59;;;;;;;3.22;1.42;;;;;;;21.62;70.18;100752.97;5072412;28;20199;-75
2023/09/26 07:23:26;;;;;;;1.58;1.35;;;;;;;21.46;70.69;100728.66;5069217;28;20209;-77
2023/09/26 07:26:05;;;;;;;2.22;1.00;;;;;;;21.80;70.33;100722.69;5072048;28;20679;-78
2023/09/26 07:28:32;;;;;;;6.47;1.73;;;;;;;21.82;71.16;100737.63;5071707;28;20210;-77
2023/09/26 07:30:59;;;;;;;5.50;2.15;;;;;;;22.00;71.67;100741.69;5071820;28;20203;-78
2023/09/26 07:33:28;;;;;;;2.97;1.38;;;;;;;21.80;71.72;100744.69;5071532;28;20671;-76
2023/09/26 07:35:55;;;;;;;2.10;1.33;;;;;;;21.26;73.08;100684.16;5071266;28;20256;-77
2023/09/26 07:38:22;;;;;;;3.45;1.40;;;;;;;21.77;73.10;100750.03;5058039;28;20230;-77
2023/09/26 07:40:49;;;;;;;2.45;1.33;;;;;;;21.96;73.11;100751.44;5071404;28;20260;-76
2023/09/26 07:43:17;;;;;;;4.30;1.58;;;;;;;21.69;73.81;100736.97;5071681;28;20210;-77
2023/09/26 07:45:44;;;;;;;2.28;1.15;;;;;;;21.77;74.18;100731.56;5071415;28;20202;-77
2023/09/26 07:48:11;;;;;;;3.45;1.52;;;;;;;22.13;74.31;100753.72;5071180;28;20207;-76
2023/09/26 07:50:37;;;;;;;6.28;1.92;;;;;;;22.32;73.17;100725.13;5036450;28;20199;-77
2023/09/26 07:53:05;;;;;;;3.75;1.40;;;;;;;22.57;72.09;100742.16;5049449;28;20676;-77
2023/09/26 07:55:31;;;;;;;1.83;1.10;;;;;;;22.47;72.15;100745.94;5059081;28;20221;-77
2023/09/26 07:57:58;;;;;;;5.82;1.48;;;;;;;22.52;72.68;100742.25;5049473;28;20235;-76
2023/09/26 08:00:27;;;;;;;6.50;1.65;;;;;;;22.81;72.46;100738.94;5070423;28;20210;-78
2023/09/26 08:02:53;;;;;;;2.00;1.00;;;;;;;22.87;72.42;100746.72;5071571;28;20324;-76
2023/09/26 08:05:20;;;;;;;2.72;1.25;;;;;;;22.56;72.86;100748.34;5052656;28;20214;-79
2023/09/26 08:07:48;;;;;;;7.20;1.77;;;;;;;22.82;73.58;100751.28;5071127;28;20191;-68
2023/09/26 08:10:15;;;;;;;2.70;1.10;;;;;;;22.99;73.94;100733.22;5034965;28;20227;-77
2023/09/26 08:12:42;;;;;;;3.90;1.38;;;;;;;22.91;74.39;100752.81;5036130;28;20205;-77
2023/09/26 08:15:09;;;;;;;1.60;0.90;;;;;;;22.78;75.34;100744.31;5071147;28;20324;-78
2023/09/26 08:17:37;;;;;;;2.08;0.90;;;;;;;22.90;76.85;100745.81;5071084;28;20231;-77
2023/09/26 08:20:05;;;;;;;2.75;1.00;;;;;;;22.89;76.23;100729.06;5071122;28;20234;-72
2023/09/26 08:22:31;;;;;;;5.65;1.42;;;;;;;22.89;76.53;100750.22;5070909;28;20713;-78
2023/09/26 08:24:58;;;;;;;4.20;1.52;;;;;;;23.09;74.91;100742.63;5032507;28;20206;-79
2023/09/26 08:27:26;;;;;;;5.32;1.55;;;;;;;23.17;75.28;100740.66;5068337;28;20594;-74
2023/09/26 08:29:52;;;;;;;6.10;1.50;;;;;;;23.28;75.11;100736.88;5075978;28;20206;-73
2023/09/26 08:32:19;;;;;;;2.88;1.08;;;;;;;23.52;74.87;100731.81;5063371;28;20303;-77
2023/09/26 08:34:47;;;;;;;5.72;1.88;;;;;;;23.73;74.72;100732.97;5077492;28;20613;-78
2023/09/26 08:37:14;;;;;;;2.97;1.15;;;;;;;23.45;76.04;100729.38;5077597;28;20245;-78
2023/09/26 08:39:43;;;;;;;2.58;1.23;;;;;;;23.53;76.75;100737.97;5077489;28;20199;-79
2023/09/26 08:42:15;;;;;;;3.65;1.48;;;;;;;23.61;76.26;100728.06;5077447;28;20227;-79
2023/09/26 08:44:42;;;;;;;3.47;1.42;;;;;;;23.81;75.97;100725.69;5077586;28;20281;-79
2023/09/26 08:47:09;;;;;;;3.30;1.42;;;;;;;23.94;75.74;100731.50;5047904;28;20595;-77
2023/09/26 08:49:41;;;;;;;2.33;1.42;;;;;;;24.06;76.91;100716.13;5074337;28;20198;-76
2023/09/26 08:52:09;;;;;;;5.82;1.70;;;;;;;24.17;75.40;100737.91;5077297;28;20277;-77
2023/09/26 08:54:36;;;;;;;8.10;2.65;;;;;;;24.09;75.58;100737.22;5057765;28;20253;-76
2023/09/26 08:57:03;;;;;;;2.38;1.23;;;;;;;24.23;74.75;100733.31;5077287;28;20688;-76
2023/09/26 08:59:32;;;;;;;3.38;1.20;;;;;;;24.17;75.65;100735.25;5077473;28;20195;-78
2023/09/26 09:01:59;;;;;;;3.92;1.08;;;;;;;24.25;75.66;100726.19;5070621;28;20697;-77
2023/09/26 09:04:26;;;;;;;5.55;1.98;;;;;;;24.17;74.84;100703.44;5070631;28;20203;-78
2023/09/26 09:07:04;;;;;;;2.47;1.30;;;;;;;24.61;74.91;100731.19;5077012;28;20207;-76
2023/09/26 09:09:33;;;;;;;2.10;1.02;;;;;;;24.23;74.56;100657.31;5077148;28;20213;-77
2023/09/26 09:12:00;;;;;;;2.58;1.40;;;;;;;24.54;74.24;100707.59;5077050;28;20210;-75
2023/09/26 09:14:34;;;;;;;6.18;1.85;;;;;;;24.95;73.30;100725.69;5042532;28;20253;-78
2023/09/26 09:17:01;;;;;;;2.47;1.10;;;;;;;24.84;71.88;100727.81;5063036;28;20194;-78
2023/09/26 09:19:46;;;;;;;3.38;1.48;;;;;;;25.09;71.37;100726.09;5066566;28;20235;-78
2023/09/26 09:22:17;;;;;;;3.30;1.38;;;;;;;25.22;70.53;100717.72;5063218;28;20218;-75
2023/09/26 09:24:52;;;;;;;2.60;1.02;;;;;;;25.09;71.27;100717.25;5064692;28;20765;-73
2023/09/26 09:27:29;;;;;;;3.85;1.40;;;;;;;25.40;70.31;100719.72;5076550;28;20234;-72
2023/09/26 09:30:03;;;;;;;2.97;1.30;;;;;;;25.30;71.23;100726.25;5064302;28;20211;-82
2023/09/26 09:32:30;;;;;;;2.83;1.23;;;;;;;25.49;70.98;100727.34;5077930;28;20618;-85
2023/09/26 09:34:57;;;;;;;3.30;1.60;;;;;;;25.51;69.31;100667.09;5079151;28;20570;-81
2023/09/26 09:37:24;;;;;;;4.70;1.35;;;;;;;25.60;69.41;100711.91;5077017;28;20198;-76
2023/09/26 09:39:52;;;;;;;3.25;1.50;;;;;;;25.91;68.67;100728.44;5076518;28;20638;-77
2023/09/26 09:42:19;;;;;;;2.92;1.35;;;;;;;25.75;67.67;100719.34;5073050;28;20199;-79
2023/09/26 09:44:46;;;;;;;2.28;1.25;;;;;;;25.81;68.65;100713.78;5073824;28;20698;-78
2023/09/26 09:47:21;;;;;;;3.25;1.45;;;;;;;26.23;67.53;100718.41;5073939;28;20199;-77
2023/09/26 09:49:47;;;;;;;3.88;1.35;;;;;;;25.87;66.57;100627.63;5054834;28;20728;-79
2023/09/26 09:52:18;;;;;;;2.83;1.33;;;;;;;26.29;66.22;100710.19;5064462;28;20210;-81
2023/09/26 09:54:46;;;;;;;13.52;1.50;;;;;;;26.11;66.71;100707.28;5074155;28;20202;-80
2023/09/26 09:57:17;;;;;;;3.83;1.45;;;;;;;26.28;65.25;100669.44;5073659;28;20235;-80
2023/09/26 09:59:45;;;;;;;3.05;1.67;;;;;;;26.69;62.96;100709.44;5059565;28;20239;-80
2023/09/26 10:02:15;;;;;;;3.97;1.52;;;;;;;26.87;62.54;100714.91;5064772;28;20222;-74
2023/09/26 10:04:43;;;;;;;6.22;1.98;;;;;;;26.44;61.43;100643.94;5068411;28;20205;-76
2023/09/26 10:07:12;;;;;;;3.28;1.23;;;;;;;26.57;62.37;100700.19;5073256;28;20227;-76
2023/09/26 10:09:40;;;;;;;3.15;1.15;;;;;;;26.86;62.16;100697.19;5073079;28;20214;-74
2023/09/26 10:12:09;;;;;;;3.35;1.73;;;;;;;27.06;59.69;100707.88;5073417;28;20290;-75
2023/09/26 10:14:37;;;;;;;10.93;2.03;;;;;;;27.31;58.74;100698.81;5073245;28;20694;-76
2023/09/26 10:17:06;;;;;;;4.30;2.20;;;;;;;27.53;59.09;100691.66;5072802;28;20199;-76
2023/09/26 10:19:34;;;;;;;5.30;1.40;;;;;;;27.37;58.48;100693.22;5073294;28;20240;-75
2023/09/26 10:22:17;;;;;;;2.30;0.90;;;;;;;27.61;57.15;100684.19;5072855;28;20198;-75
2023/09/26 10:24:51;;;;;;;2.53;1.08;;;;;;;27.63;56.56;100684.97;5030858;28;20273;-74
2023/09/26 10:27:25;;;;;;;4.90;1.67;;;;;;;27.47;57.04;100689.22;5031061;28;20220;-77
2023/09/26 10:29:54;;;;;;;3.70;1.30;;;;;;;27.60;57.95;100685.09;5031006;28;20231;-79
2023/09/26 10:32:32;;;;;;;4.20;1.40;;;;;;;27.58;56.26;100676.28;5031085;28;20691;-79
2023/09/26 10:34:59;;;;;;;2.67;1.27;;;;;;;27.28;55.72;100640.38;5030896;28;20202;-80
2023/09/26 10:37:27;;;;;;;2.63;1.00;;;;;;;27.41;55.18;100678.81;5031211;28;20200;-80
2023/09/26 10:39:54;;;;;;;2.65;1.10;;;;;;;27.52;54.83;100676.59;5030876;28;20331;-78
2023/09/26 10:42:24;;;;;;;2.65;1.50;;;;;;;27.60;54.76;100677.09;5014531;28;20197;-78
2023/09/26 10:44:53;;;;;;;2.95;1.08;;;;;;;27.22;54.76;100661.94;5031029;28;20207;-79
2023/09/26 10:47:22;;;;;;;5.07;1.92;;;;;;;27.14;54.95;100643.66;4982239;28;20192;-78
2023/09/26 10:49:49;;;;;;;2.50;1.10;;;;;;;27.58;54.59;100662.97;5030716;28;20211;-79
2023/09/26 10:52:16;;;;;;;2.00;1.15;;;;;;;27.59;55.41;100673.56;5030690;28;20625;-79
2023/09/26 10:54:43;;;;;;;4.40;1.73;;;;;;;27.43;54.32;100645.84;5030728;28;20254;-79
2023/09/26 10:57:18;;;;;;;2.40;1.10;;;;;;;27.61;53.50;100660.19;5030887;28;20223;-79
2023/09/26 10:59:45;;;;;;;3.00;1.52;;;;;;;27.60;53.83;100663.78;5030441;28;20301;-78
2023/09/26 11:02:13;;;;;;;3.15;1.15;;;;;;;27.62;54.25;100659.22;5012584;28;20203;-80
2023/09/26 11:04:40;;;;;;;1.92;1.00;;;;;;;27.61;53.20;100656.66;5072593;28;20199;-80
2023/09/26 11:07:07;;;;;;;2.40;1.30;;;;;;;27.58;52.79;100662.97;5072595;28;20199;-77
2023/09/26 11:09:39;;;;;;;3.97;1.48;;;;;;;27.55;52.63;100625.81;5072261;28;20228;-77
2023/09/26 11:12:06;;;;;;;6.97;1.95;;;;;;;27.82;52.83;100642.34;5072395;28;20190;-78
2023/09/26 11:14:33;;;;;;;2.53;1.35;;;;;;;27.70;53.46;100635.78;5053868;28;20201;-78
2023/09/26 11:17:00;;;;;;;3.60;1.45;;;;;;;27.96;52.53;100640.75;5072339;28;20225;-78
2023/09/26 11:19:29;;;;;;;3.50;1.40;;;;;;;28.16;51.17;100646.94;5072035;28;20246;-78
2023/09/26 11:21:56;;;;;;;2.60;1.65;;;;;;;27.98;50.02;100606.88;5071972;28;20195;-81
2023/09/26 11:24:23;;;;;;;2.17;1.02;;;;;;;28.18;49.56;100639.75;5072019;28;20194;-79
2023/09/26 11:26:53;;;;;;;2.92;1.35;;;;;;;27.95;50.13;100636.34;5072125;28;20195;-79